Flight Track Log - Related Links

Times and Time Zones

All times are in EST time to prevent confusion due to time zone crossing. See the N1570N flight status page for this flight to view local times or setup timezone preferences in your user account.

Time Position Orientation Groundspeed Altitude Reporting Facility
EST Latitude Longitude Course Direction KTS MPH feet Rate Location/Type
Fri 07:24:25 PM 36.3317 -92.3936 173° South 144 166 5,500  Level Memphis Center
Fri 07:25:27 PM 36.2914 -92.3925 179° South 123 142 6,900 484 Climbing Memphis Center
Fri 07:27:31 PM 36.1969 -92.3831 175° South 174 200 7,000 32 Climbing Memphis Center
Fri 07:28:00 PM 36.1015 -92.4189 174° South  Level FlightAware Approximate
Fri 07:28:33 PM 36.1450 -92.3797 177° South 182 209 7,000  Level Memphis Center
Fri 07:29:00 PM 36.0570 -92.4129 173° South  Level FlightAware Approximate
Fri 07:29:35 PM 36.0928 -92.3728 174° South 185 213 7,000  Level Memphis Center
Fri 07:30:37 PM 36.0408 -92.3661 174° South 187 215 7,000  Level Memphis Center
Fri 07:31:39 PM 35.9764 -92.3597 175° South 190 219 7,000  Level Memphis Center
Fri 07:32:41 PM 35.9242 -92.3536 175° South 190 219 7,000 -48 Level Memphis Center
Fri 07:33:43 PM 35.8717 -92.3486 176° South 190 219 6,900  Descending Memphis Center
Fri 07:34:45 PM 35.8186 -92.3428 175° South 190 219 7,000 49 Climbing Memphis Center
Fri 07:35:46 PM 35.7653 -92.3375 175° South 191 220 7,000  Level Memphis Center
Fri 07:36:48 PM 35.7119 -92.3311 174° South 192 221 7,000  Level Memphis Center
Fri 07:37:50 PM 35.6592 -92.3256 175° South 191 220 7,000  Level Memphis Center
Fri 07:38:52 PM 35.5947 -92.3192 175° South 192 221 7,000  Level Memphis Center
Fri 07:39:54 PM 35.5417 -92.3131 175° South 192 221 7,000 -48 Level Memphis Center
Fri 07:40:56 PM 35.4883 -92.3075 175° South 192 221 6,900  Descending Memphis Center
Fri 07:41:20 PM 35.4633 -92.3050 175° South 192 221 7,000 125 Climbing Memphis Center
Fri 07:41:44 PM 35.4422 -92.3036 177° South 191 220 7,000  Level Memphis Center
Fri 07:41:58 PM 35.4356 -92.3014 165° South 191 220 7,000  Level Memphis Center
Fri 07:42:45 PM 35.3878 -92.2969 176° South 191 220 7,000  Level Memphis Center
Fri 07:43:00 PM 35.3817 -92.2956 170° South 192 221 7,000  Level Memphis Center
Fri 07:43:46 PM 35.3372 -92.2925 177° South 190 219 7,000  Level Memphis Center
Fri 07:44:02 PM 35.3286 -92.2889 161° South 192 221 7,000 -600 Level Memphis Center
Fri 07:44:46 PM 35.2806 -92.2858 177° South 196 226 6,400 -590 Descending Memphis Center
Fri 07:45:03 PM 35.2744 -92.2831 160° South 192 221 6,400 -393 Level Memphis Center
Fri 07:45:47 PM 35.2219 -92.2792 177° South 200 230 6,000 -484 Descending Memphis Center
Fri 07:46:05 PM 35.2081 -92.2758 169° South 196 226 5,900 -800 Descending Memphis Center
Fri 07:46:47 PM 35.1694 -92.2725 176° South 197 227 5,200 -871 Descending Memphis Center
Fri 07:47:07 PM 35.1528 -92.2694 171° South 197 227 5,000 -689 Descending Memphis Center
Fri 07:47:48 PM 35.1125 -92.2658 176° South 196 226 4,500 -677 Descending Memphis Center
Fri 07:48:09 PM 35.0989 -92.2644 175° South 197 227 4,300 -492 Descending Memphis Center
Fri 07:48:49 PM 35.0644 -92.2614 176° South 180 207 4,000 -387 Descending Memphis Center
Fri 07:49:11 PM 35.0497 -92.2594 174° South 189 217 3,900 -71 Descending Memphis Center
Fri 07:50:13 PM 35.0031 -92.2550 176° South 179 206 3,900 -182 Level Memphis Center
Fri 07:50:50 PM 34.9700 -92.2519 176° South 168 193 3,600 -484 Descending Memphis Center
Fri 07:51:15 PM 34.9567 -92.2506 175° South 172 198 3,400 -600 Descending Memphis Center
Fri 07:51:50 PM 34.9197 -92.2475 176° South 171 197 3,000 -387 Descending Memphis Center
Fri 07:52:17 PM 34.8994 -92.2433 170° South 172 198 3,000 -90 Level Memphis Center
Fri 07:52:57 PM 34.8692 -92.2406 176° South 160 184 2,900 -194 Descending Memphis Center
Fri 07:53:19 PM 34.8556 -92.2372 169° South 166 191 2,800 -885 Descending Memphis Center
Fri 07:53:58 PM 34.8292 -92.2356 177° South 148 170 2,000 -1,065 Descending Memphis Center
Fri 07:54:21 PM 34.8153 -92.2350 178° South 156 180 1,700 -700 Descending Memphis Center
Fri 07:54:58 PM 34.7897 -92.2381 186° South 136 157 1,300 -590 Descending Memphis Center
Fri 07:55:22 PM 34.7786 -92.2392 185° South 144 166 1,100 -590 Descending Memphis Center
Fri 07:55:59 PM 34.7603 -92.2372 175° South 101 116 700 -649 Descending Memphis Center
Fri 07:57:00 PM 34.7294 -92.2248 159° South  Level Estimated
Fri 08:04:00 PM 34.7294 -92.2248 168° South  Level Estimated

Login

Don't have an account? Register now (free) for customized features, flight alerts, and more!